Latest Weather Observations for Kununurra Airport

IDD60801

Issued at 3:31 am CST Tuesday 21 February 2017 (issued every 30 minutes, with the page automatically refreshed every 10 minutes)

About weather observations | Map of weather stations | Latest weather observations for NT | Other Formats
Station Details ID: 002056 Name: KUNUNURRA AERO Lat: -15.78 Lon: 128.71 Height: 44.0 m
Data from the previous 72 hours. | See also: Recent months at Kununurra Airport
Date/Time
CST
Temp
°C
App
Temp
°C
Dew
Point
°C
Rel
Hum
%
Delta-T
°C
Wind Press
QNH
hPa
Press
MSL
hPa
Rain since
9am
mm
Dir  Spd
km/h
Gust
km/h
Spd
kts
Gust
kts
21/03:00am 23.5 28.3 22.1 92 0.9 CALM 0 0 0 0 1009.4 1009.1 0.0
21/02:30am 23.8 28.1 21.9 89 1.3 SE 2 6 1 3 1009.8 1009.5 0.0
21/02:04am 23.6 26.8 21.7 89 1.3 E 7 9 4 5 1010.0 1009.7 0.0
21/02:00am 23.7 27.2 21.8 89 1.3 ESE 6 7 3 4 1010.0 1009.7 0.0
21/01:46am 23.9 27.9 22.0 89 1.3 NW 4 6 2 3 1010.1 1009.8 0.0
21/01:33am 23.7 27.0 21.4 87 1.5 NW 6 6 3 3 1010.1 1009.8 0.0
21/01:30am 23.9 27.7 21.6 87 1.5 NW 4 6 2 3 1010.1 1009.8 0.0
21/01:06am 24.2 27.5 21.5 85 1.8 NNW 6 7 3 4 1010.2 1009.9 0.0
21/01:00am 24.1 27.4 21.4 85 1.8 N 6 9 3 5 1010.3 1010.0 0.0
21/12:51am 24.4 27.1 21.3 83 2.0 NNE 9 11 5 6 1010.4 1010.1 0.0
21/12:34am 25.0 27.9 21.1 79 2.6 NNE 7 9 4 5 1010.6 1010.3 0.0
21/12:30am 25.2 27.6 20.9 77 2.8 N 9 13 5 7 1010.5 1010.2 0.0
21/12:27am 25.1 27.6 21.0 78 2.7 N 9 13 5 7 1010.5 1010.2 0.0
21/12:00am 24.1 28.1 22.0 88 1.4 E 4 17 2 9 1010.8 1010.5 0.0
 
Date/Time
CST
Temp
°C
App
Temp
°C
Dew
Point
°C
Rel
Hum
%
Delta-T
°C
Wind Press
QNH
hPa
Press
MSL
hPa
Rain since
9am
mm
Dir  Spd
km/h
Gust
km/h
Spd
kts
Gust
kts
20/11:58pm 24.8 30.0 22.9 89 1.3 CALM 0 9 0 5 1010.7 1010.4 0.0
20/11:30pm 24.8 29.3 22.9 89 1.3 E 4 9 2 5 1010.6 1010.3 0.0
20/11:00pm 24.7 28.9 22.4 87 1.5 NNW 4 13 2 7 1010.6 1010.3 0.0
20/10:30pm 26.2 31.6 23.3 84 2.0 CALM 0 0 0 0 1010.5 1010.2 0.0
20/10:00pm 26.2 30.8 23.1 83 2.1 WNW 4 9 2 5 1010.3 1010.0 0.0
20/09:31pm 26.9 32.5 23.6 82 2.3 CALM 0 0 0 0 1010.1 1009.8 0.0
20/09:30pm 26.9 32.3 23.2 80 2.5 CALM 0 0 0 0 1010.0 1009.7 0.0
20/09:12pm 26.7 30.8 23.0 80 2.5 SW 6 7 3 4 1009.8 1009.5 0.0
20/09:00pm 26.7 31.3 22.5 78 2.8 SSE 2 7 1 4 1009.7 1009.4 0.0
20/08:30pm 27.8 33.2 23.2 76 3.2 CALM 0 7 0 4 1009.2 1008.9 0.0
20/08:00pm 29.6 32.1 20.2 57 6.2 E 7 9 4 5 1008.6 1008.3 0.0
20/07:30pm 30.0 33.1 21.4 60 5.8 ENE 7 9 4 5 1008.2 1007.9 0.0
20/07:00pm 32.2 34.1 19.8 48 8.2 E 9 9 5 5 1007.7 1007.4 0.0
20/06:30pm 33.6 34.9 18.5 40 9.9 ESE 9 11 5 6 1007.2 1006.9 0.0
20/06:00pm 34.4 35.0 16.7 34 11.3 ESE 9 15 5 8 1006.8 1006.5 0.0
20/05:30pm 34.7 34.6 16.1 33 11.8 SE 11 19 6 10 1006.9 1006.6 0.0
20/05:00pm 34.9 35.1 16.7 34 11.6 SE 11 15 6 8 1006.9 1006.6 0.0
20/04:30pm 34.7 34.5 15.6 32 12.0 SE 11 19 6 10 1006.9 1006.6 0.0
20/04:00pm 34.7 35.0 17.9 37 10.9 E 13 19 7 10 1007.1 1006.8 0.0
20/03:30pm 35.1 35.5 17.3 34 11.5 ESE 11 15 6 8 1007.3 1007.0 0.0
20/03:00pm 35.1 35.5 18.2 36 11.0 SSE 13 20 7 11 1007.4 1007.1 0.0
20/02:30pm 34.6 35.0 16.4 33 11.6 E 9 17 5 9 1007.8 1007.5 0.0
20/02:00pm 34.3 34.4 17.5 36 10.8 ENE 13 22 7 12 1008.0 1007.7 0.0
20/01:30pm 34.4 34.6 17.6 37 10.9 E 13 19 7 10 1008.4 1008.1 0.0
20/01:00pm 34.2 33.7 19.1 41 9.9 E 20 30 11 16 1008.8 1008.5 0.0
20/12:30pm 33.8 34.6 19.8 43 9.3 E 15 24 8 13 1009.3 1009.0 0.0
20/12:00pm 33.7 34.8 19.7 43 9.3 ESE 13 19 7 10 1009.6 1009.3 0.0
20/11:30am 33.3 34.0 19.7 44 9.0 E 15 20 8 11 1010.0 1009.7 0.0
20/11:00am 32.9 36.9 21.4 50 7.8 NE 2 17 1 9 1010.3 1010.0 0.0
20/10:30am 32.6 37.2 22.4 55 7.0 E 2 13 1 7 1010.5 1010.2 0.0
20/10:00am 31.7 36.9 23.5 62 5.7 E 2 13 1 7 1010.7 1010.4 0.0
20/09:30am 31.1 38.0 25.7 73 3.8 CALM 0 0 0 0 1010.7 1010.4 0.0
20/09:00am 30.5 36.9 24.9 72 3.9 CALM 0 0 0 0 1010.5 1010.2 0.0
20/08:30am 28.5 34.8 24.7 80 2.7 CALM 0 0 0 0 1010.3 1010.0 0.0
20/08:00am 27.1 33.1 24.2 84 2.0 CALM 0 0 0 0 1010.0 1009.7 0.0
20/07:30am 25.8 31.5 23.8 89 1.4 CALM 0 0 0 0 1009.5 1009.2 0.0
20/07:00am 25.8 31.1 23.1 85 1.8 CALM 0 0 0 0 1009.1 1008.8 0.0
20/06:30am 26.0 31.1 22.7 82 2.2 CALM 0 0 0 0 1008.6 1008.3 0.0
20/06:00am 25.9 31.1 22.8 83 2.1 CALM 0 0 0 0 1008.4 1008.1 0.0
20/05:30am 26.5 32.1 23.6 84 2.0 CALM 0 0 0 0 1008.1 1007.8 0.0
20/05:00am 26.5 33.0 25.1 92 1.0 CALM 0 0 0 0 1007.6 1007.3 0.0
20/04:30am 25.9 32.4 25.0 95 0.6 CALM 0 0 0 0 1007.4 1007.1 0.0
20/04:00am 26.1 32.6 25.1 94 0.7 CALM 0 0 0 0 1007.2 1006.9 0.0
20/03:30am 26.2 32.7 25.0 93 0.8 CALM 0 0 0 0 1007.0 1006.7 0.0
20/03:00am 26.8 33.1 24.8 89 1.4 CALM 0 0 0 0 1007.2 1006.9 0.0
20/02:30am 26.7 32.7 24.9 90 1.3 E 2 6 1 3 1007.7 1007.4 0.0
20/02:00am 27.0 33.6 25.2 90 1.3 CALM 0 0 0 0 1008.2 1007.9 0.0
20/01:46am 26.9 33.3 24.9 89 1.4 CALM 0 0 0 0 1008.3 1008.0 0.0
20/01:30am 27.1 33.4 25.3 90 1.3 NW 2 6 1 3 1008.5 1008.2 0.0
20/01:29am 27.0 32.8 25.2 90 1.3 NNW 4 7 2 4 1008.5 1008.2 0.0
20/01:00am 27.4 32.0 24.8 86 1.8 N 9 13 5 7 1008.5 1008.2 0.0
20/12:30am 28.1 32.3 25.3 85 2.0 NNE 13 17 7 9 1008.8 1008.5 0.0
20/12:00am 28.2 33.3 25.6 86 1.8 NNE 9 15 5 8 1009.2 1008.9 0.0
 
Date/Time
CST
Temp
°C
App
Temp
°C
Dew
Point
°C
Rel
Hum
%
Delta-T
°C
Wind Press
QNH
hPa
Press
MSL
hPa
Rain since
9am
mm
Dir  Spd
km/h
Gust
km/h
Spd
kts
Gust
kts
19/11:30pm 28.5 34.5 26.1 87 1.7 NNE 6 7 3 4 1009.3 1009.0 0.0
19/11:00pm 28.7 34.6 25.9 85 2.0 NE 6 6 3 3 1009.1 1008.8 0.0
19/10:30pm 28.5 34.7 26.3 88 1.6 NNE 6 9 3 5 1008.7 1008.4 0.0
19/10:00pm 29.3 36.7 26.5 85 2.0 CALM 0 0 0 0 1008.6 1008.3 0.0
19/09:30pm 29.4 36.6 26.2 83 2.3 CALM 0 0 0 0 1008.2 1007.9 0.0
19/09:00pm 29.3 35.7 26.1 83 2.3 NW 4 6 2 3 1007.8 1007.5 0.0
19/08:30pm 29.5 35.7 26.7 85 2.0 NNW 7 11 4 6 1007.7 1007.4 0.0
19/08:00pm 30.0 35.9 26.2 80 2.7 N 7 9 4 5 1007.3 1007.0 0.0
19/07:30pm 30.7 36.0 25.8 75 3.5 N 9 11 5 6 1006.8 1006.5 0.0
19/07:00pm 32.0 36.8 25.1 67 4.9 NNW 9 11 5 6 1006.5 1006.2 0.0
19/06:30pm 33.3 37.6 24.2 59 6.4 N 9 13 5 7 1006.2 1005.9 0.0
19/06:00pm 33.8 38.2 24.4 58 6.6 NNW 9 13 5 7 1006.0 1005.7 0.0
19/05:30pm 34.0 38.4 23.4 54 7.4 N 6 9 3 5 1005.9 1005.6 0.0
19/05:00pm 34.7 38.5 22.7 49 8.3 WSW 7 13 4 7 1005.8 1005.5 0.0
19/04:30pm 34.3 38.1 22.7 50 8.0 SSE 7 13 4 7 1006.1 1005.8 0.0
19/04:00pm 33.9 36.7 22.3 50 8.0 SSE 11 17 6 9 1006.2 1005.9 0.0
19/03:30pm 33.9 37.5 23.0 53 7.6 S 9 13 5 7 1006.5 1006.2 0.0
19/03:00pm 33.5 36.8 22.6 53 7.5 SSW 9 13 5 7 1006.9 1006.6 0.0
19/02:30pm 33.0 37.3 23.3 56 6.7 NW 6 7 3 4 1007.2 1006.9 0.0
19/02:00pm 32.6 37.2 23.8 59 6.1 SSW 6 13 3 7 1007.6 1007.3 0.0
19/01:30pm 32.0 36.7 23.3 60 6.0 NNE 4 9 2 5 1008.2 1007.9 0.0
19/01:00pm 31.1 35.6 23.7 64 5.1 ENE 6 9 3 5 1008.9 1008.6 0.0
19/12:30pm 31.5 37.4 25.4 70 4.3 SSE 4 7 2 4 1009.4 1009.1 0.0
19/12:00pm 30.7 35.1 23.4 65 5.0 N 6 13 3 7 1009.8 1009.5 0.0
19/11:30am 29.8 35.1 24.4 73 3.8 E 4 7 2 4 1010.1 1009.8 0.0
19/11:12am 29.2 34.2 23.9 73 3.7 SE 4 7 2 4 1010.2 1009.9 0.0
19/11:00am 28.6 33.3 23.3 73 3.6 SE 4 7 2 4 1010.4 1010.1 0.0
19/10:57am 28.5 33.4 23.6 75 3.4 ESE 4 7 2 4 1010.4 1010.1 0.0
19/10:30am 27.9 32.4 23.9 79 2.8 E 7 11 4 6 1010.4 1010.1 5.6
19/10:00am 27.3 31.6 23.7 81 2.5 SW 7 11 4 6 1010.2 1009.9 5.6
19/09:30am 26.4 31.5 24.6 90 1.3 NW 6 9 3 5 1010.0 1009.7 5.6
19/09:13am 26.0 30.5 23.9 88 1.4 WNW 7 13 4 7 1009.7 1009.4 5.6
19/09:00am 25.4 28.9 23.5 89 1.3 WSW 11 15 6 8 1009.5 1009.2 5.6
19/08:55am 25.1 28.2 23.5 91 1.1 WSW 13 19 7 10 1009.4 1009.1 5.6
19/08:30am 24.3 28.3 23.8 97 0.3 WSW 9 15 5 8 1009.2 1008.9 5.6
19/08:00am 23.7 27.4 23.2 97 0.3 WSW 9 15 5 8 1008.7 1008.4 5.6
19/07:41am 23.5 27.6 23.0 97 0.3 S 6 11 3 6 1009.2 1008.9 5.6
19/07:31am 23.5 28.0 23.0 97 0.3 SSE 4 7 2 4 1009.1 1008.8 5.2
19/07:30am 23.4 27.9 22.9 97 0.3 S 4 7 2 4 1009.1 1008.8 5.2
19/07:11am 23.4 27.3 22.9 97 0.3 W 7 15 4 8 1009.3 1009.0 4.4
19/07:00am 23.4 26.1 22.9 97 0.3 NNW 13 19 7 10 1008.7 1008.4 4.0
19/06:59am 23.5 26.3 23.0 97 0.3 NNW 13 19 7 10 1008.6 1008.3 4.0
19/06:39am 23.3 26.8 22.8 97 0.3 NW 9 13 5 7 1009.0 1008.7 3.6
19/06:30am 23.2 26.1 22.5 96 0.5 WNW 11 13 6 7 1009.1 1008.8 3.6
19/06:15am 23.2 26.1 22.5 96 0.5 SE 11 19 6 10 1010.1 1009.8 3.6
19/06:00am 23.1 22.7 22.4 96 0.5 ESE 28 41 15 22 1010.1 1009.8 3.6
19/05:55am 23.0 21.6 22.2 95 0.5 ESE 33 48 18 26 1010.0 1009.7 3.4
19/05:45am 24.1 23.1 22.7 92 0.9 ESE 32 50 17 27 1010.1 1009.8 0.8
19/05:41am 25.0 25.7 22.9 88 1.4 SE 24 50 13 27 1009.8 1009.5 0.2
19/05:38am 26.6 29.0 22.9 80 2.5 SE 15 26 8 14 1009.6 1009.3 0.0
19/05:37am 26.7 28.8 22.5 78 2.8 SE 15 20 8 11 1009.5 1009.2 0.0
19/05:30am 26.5 30.8 24.3 88 1.5 SE 9 15 5 8 1008.9 1008.6 0.0
19/05:21am 26.3 32.2 24.7 91 1.1 NNW 2 6 1 3 1008.3 1008.0 0.0
19/05:07am 26.1 30.8 24.3 90 1.2 N 7 13 4 7 1007.8 1007.5 0.0
19/05:00am 26.1 30.2 24.5 91 1.1 NNE 11 13 6 7 1007.5 1007.2 0.0
19/04:30am 26.3 31.0 23.4 84 2.0 ENE 4 6 2 3 1006.9 1006.6 0.0
19/04:00am 27.6 31.0 21.6 70 4.0 SW 6 6 3 3 1006.8 1006.5 0.0
19/03:32am 26.7 32.8 24.4 87 1.6 CALM 0 0 0 0 1007.1 1006.8 0.0
19/03:30am 26.8 32.5 23.7 83 2.1 CALM 0 0 0 0 1007.2 1006.9 0.0
19/03:00am 26.5 30.9 23.8 85 1.9 ESE 7 9 4 5 1007.2 1006.9 0.0
19/02:52am 26.9 30.9 22.7 78 2.8 SSW 6 7 3 4 1007.2 1006.9 0.0
19/02:36am 26.7 32.2 24.0 85 1.9 NNW 2 9 1 5 1007.2 1006.9 0.0
19/02:30am 27.0 33.0 24.3 85 1.9 CALM 0 0 0 0 1007.2 1006.9 0.0
19/02:00am 26.8 32.5 23.7 83 2.1 CALM 0 0 0 0 1007.4 1007.1 0.0
19/01:55am 26.7 32.3 23.6 83 2.1 CALM 0 0 0 0 1007.3 1007.0 0.0
19/01:35am 27.0 32.7 23.7 82 2.3 CALM 0 0 0 0 1007.4 1007.1 0.0
19/01:30am 26.9 32.4 23.4 81 2.4 CALM 0 0 0 0 1007.5 1007.2 0.0
19/01:10am 27.5 32.6 22.7 75 3.3 CALM 0 0 0 0 1007.7 1007.4 0.0
19/01:00am 27.4 32.5 22.6 75 3.3 CALM 0 0 0 0 1008.0 1007.7 0.0
19/12:47am 27.4 32.2 22.8 76 3.1 NW 2 6 1 3 1008.3 1008.0 0.0
19/12:43am 27.3 31.6 22.7 76 3.1 NW 4 7 2 4 1008.4 1008.1 0.0
19/12:30am 27.5 30.9 22.7 75 3.3 NNW 9 11 5 6 1008.5 1008.2 0.0
19/12:24am 27.6 30.9 22.5 74 3.5 NNW 9 13 5 7 1008.5 1008.2 0.0
19/12:00am 28.6 33.5 23.7 75 3.4 NW 4 9 2 5 1008.8 1008.5 0.0
 
Date/Time
CST
Temp
°C
App
Temp
°C
Dew
Point
°C
Rel
Hum
%
Delta-T
°C
Wind Press
QNH
hPa
Press
MSL
hPa
Rain since
9am
mm
Dir  Spd
km/h
Gust
km/h
Spd
kts
Gust
kts
18/11:30pm 29.4 31.5 23.1 69 4.3 SW 17 24 9 13 1009.2 1008.9 0.0
18/11:00pm 28.7 36.1 26.5 88 1.6 CALM 0 0 0 0 1009.0 1008.7 0.0
18/10:30pm 29.3 36.6 26.3 84 2.1 CALM 0 0 0 0 1008.6 1008.3 0.0
18/10:00pm 29.0 35.1 26.2 85 2.0 N 6 7 3 4 1008.3 1008.0 0.0
18/09:30pm 29.3 35.7 26.7 86 1.9 NNW 6 6 3 3 1007.9 1007.6 0.0
18/09:00pm 29.5 35.3 26.1 82 2.4 N 7 7 4 4 1007.4 1007.1 0.0
18/08:30pm 30.0 35.1 25.5 77 3.2 N 9 11 5 6 1007.4 1007.1 0.0
18/08:00pm 30.5 35.2 25.6 75 3.5 N 11 13 6 7 1007.0 1006.7 0.0
18/07:30pm 31.1 35.5 25.7 73 3.8 NNW 13 15 7 8 1006.6 1006.3 0.0
18/07:00pm 32.5 36.5 25.6 67 4.9 N 15 19 8 10 1006.8 1006.5 0.0
18/06:30pm 33.5 37.6 25.7 63 5.6 NNE 15 20 8 11 1006.6 1006.3 0.0
18/06:00pm 34.0 38.4 25.7 62 5.9 NNW 13 24 7 13 1006.5 1006.2 0.0
18/05:30pm 34.9 39.1 24.8 55 7.2 NNW 11 15 6 8 1006.4 1006.1 0.0
18/05:00pm 34.7 39.0 24.3 54 7.3 W 9 15 5 8 1006.7 1006.4 0.0
18/04:30pm 35.4 40.3 25.3 56 7.2 W 9 17 5 9 1006.9 1006.6 0.0
18/04:00pm 34.9 38.0 23.6 52 7.9 WSW 13 17 7 9 1007.2 1006.9 0.0
18/03:30pm 35.2 38.1 23.8 51 8.0 WSW 15 20 8 11 1007.4 1007.1 0.0
18/03:00pm 35.1 38.7 23.1 49 8.3 SSW 9 15 5 8 1007.9 1007.6 0.0
18/02:30pm 34.4 36.7 21.4 46 8.8 WSW 11 15 6 8 1008.2 1007.9 0.0
18/02:00pm 33.4 36.1 22.2 52 7.7 SW 11 15 6 8 1008.6 1008.3 0.0
18/01:30pm 33.0 36.1 24.2 60 6.2 SW 15 20 8 11 1008.8 1008.5 0.0
18/01:00pm 31.9 35.8 24.2 63 5.4 WSW 11 15 6 8 1009.2 1008.9 0.0
18/12:30pm 31.7 34.7 24.0 63 5.4 SW 15 20 8 11 1009.5 1009.2 0.0
18/12:00pm 30.8 33.2 24.2 68 4.6 SW 19 24 10 13 1009.8 1009.5 0.0
18/11:30am 29.1 29.6 22.6 68 4.4 WSW 24 32 13 17 1010.0 1009.7 0.0
18/11:00am 28.5 29.3 23.2 73 3.6 WSW 24 33 13 18 1010.5 1010.2 0.0
18/10:30am 27.0 30.3 23.9 83 2.1 SW 13 19 7 10 1010.9 1010.6 0.6
18/10:00am 25.5 30.1 23.2 87 1.6 SW 4 11 2 6 1011.2 1010.9 0.6
18/09:42am 24.9 29.8 23.1 90 1.2 N 2 7 1 4 1011.3 1011.0 0.6
18/09:30am 24.8 30.0 23.6 93 0.8 NNE 2 6 1 3 1011.7 1011.4 0.6
18/09:27am 24.6 29.2 23.2 92 0.9 N 4 7 2 4 1011.7 1011.4 0.6
18/09:00am 23.8 27.3 22.8 94 0.7 NW 9 13 5 7 1012.1 1011.8 0.2
18/08:30am 23.9 25.8 22.0 89 1.3 NNE 15 22 8 12 1012.7 1012.4 0.2
18/08:00am 24.6 24.2 21.7 84 1.9 E 26 30 14 16 1013.2 1012.9 0.0
18/07:30am 25.0 25.8 21.7 82 2.2 SSE 20 28 11 15 1012.0 1011.7 0.0
18/07:00am 25.0 29.1 22.3 85 1.8 ENE 4 6 2 3 1010.4 1010.1 0.0
18/06:30am 25.6 27.3 22.3 82 2.2 SE 17 22 9 12 1011.1 1010.8 0.0
18/06:00am 25.2 28.4 22.3 84 1.9 SW 9 13 5 7 1009.8 1009.5 0.0
18/05:30am 24.5 27.5 22.6 89 1.3 NNW 11 15 6 8 1009.8 1009.5 0.0

Other Formats:

Comma delimited format used in spreadsheet applications
http://www.bom.gov.au/fwo/IDD60801/IDD60801.94216.axf

JavaScript Object Notation format (JSON) in row-major order
http://www.bom.gov.au/fwo/IDD60801/IDD60801.94216.json